sensor_id;sensor_type;location;lat;lon;timestamp;P1;durP1;ratioP1;P2;durP2;ratioP2
69280;SDS011;56392;51.082;17.080;2023-11-18T00:00:46;7.30;;;2.20;;
69280;SDS011;56392;51.082;17.080;2023-11-18T00:06:18;8.55;;;2.50;;
69280;SDS011;56392;51.082;17.080;2023-11-18T00:11:42;6.30;;;2.27;;
69280;SDS011;56392;51.082;17.080;2023-11-18T00:17:06;6.23;;;2.20;;
69280;SDS011;56392;51.082;17.080;2023-11-18T00:22:29;7.30;;;2.20;;
69280;SDS011;56392;51.082;17.080;2023-11-18T00:27:53;6.00;;;2.10;;
69280;SDS011;56392;51.082;17.080;2023-11-18T00:33:16;6.87;;;2.03;;
69280;SDS011;56392;51.082;17.080;2023-11-18T00:38:39;8.40;;;2.47;;
69280;SDS011;56392;51.082;17.080;2023-11-18T00:44:04;6.18;;;2.13;;
69280;SDS011;56392;51.082;17.080;2023-11-18T00:49:29;6.97;;;2.27;;
69280;SDS011;56392;51.082;17.080;2023-11-18T00:54:53;6.35;;;2.25;;
69280;SDS011;56392;51.082;17.080;2023-11-18T01:00:17;8.25;;;2.60;;
69280;SDS011;56392;51.082;17.080;2023-11-18T01:05:43;6.27;;;2.33;;
69280;SDS011;56392;51.082;17.080;2023-11-18T01:11:06;8.17;;;2.63;;
69280;SDS011;56392;51.082;17.080;2023-11-18T01:16:31;7.60;;;2.50;;
69280;SDS011;56392;51.082;17.080;2023-11-18T01:21:55;8.77;;;2.70;;
69280;SDS011;56392;51.082;17.080;2023-11-18T01:27:21;7.10;;;2.63;;
69280;SDS011;56392;51.082;17.080;2023-11-18T01:32:45;8.68;;;2.50;;
69280;SDS011;56392;51.082;17.080;2023-11-18T01:38:08;7.47;;;2.35;;
69280;SDS011;56392;51.082;17.080;2023-11-18T01:43:33;7.13;;;2.30;;
69280;SDS011;56392;51.082;17.080;2023-11-18T01:48:58;7.28;;;2.28;;
69280;SDS011;56392;51.082;17.080;2023-11-18T01:54:21;6.20;;;2.10;;
69280;SDS011;56392;51.082;17.080;2023-11-18T01:59:45;6.13;;;2.20;;
69280;SDS011;56392;51.082;17.080;2023-11-18T02:05:10;6.90;;;1.93;;
69280;SDS011;56392;51.082;17.080;2023-11-18T02:10:34;5.57;;;1.98;;
69280;SDS011;56392;51.082;17.080;2023-11-18T02:16:08;5.25;;;1.60;;
69280;SDS011;56392;51.082;17.080;2023-11-18T02:21:33;5.20;;;1.30;;
69280;SDS011;56392;51.082;17.080;2023-11-18T02:27:01;5.72;;;1.52;;
69280;SDS011;56392;51.082;17.080;2023-11-18T02:32:28;4.80;;;1.23;;
69280;SDS011;56392;51.082;17.080;2023-11-18T02:37:55;5.47;;;1.00;;
69280;SDS011;56392;51.082;17.080;2023-11-18T02:43:22;3.30;;;0.90;;
69280;SDS011;56392;51.082;17.080;2023-11-18T02:48:49;3.55;;;0.80;;
69280;SDS011;56392;51.082;17.080;2023-11-18T02:54:15;3.20;;;0.77;;
69280;SDS011;56392;51.082;17.080;2023-11-18T02:59:41;4.57;;;1.20;;
69280;SDS011;56392;51.082;17.080;2023-11-18T03:05:05;4.75;;;1.30;;
69280;SDS011;56392;51.082;17.080;2023-11-18T03:10:29;5.75;;;1.50;;
69280;SDS011;56392;51.082;17.080;2023-11-18T03:15:56;5.60;;;1.63;;
69280;SDS011;56392;51.082;17.080;2023-11-18T03:21:19;5.88;;;1.40;;
69280;SDS011;56392;51.082;17.080;2023-11-18T03:26:42;6.13;;;1.83;;
69280;SDS011;56392;51.082;17.080;2023-11-18T03:32:07;6.80;;;1.70;;
69280;SDS011;56392;51.082;17.080;2023-11-18T03:37:30;5.60;;;1.77;;
69280;SDS011;56392;51.082;17.080;2023-11-18T03:42:53;5.95;;;1.60;;
69280;SDS011;56392;51.082;17.080;2023-11-18T03:48:18;5.23;;;1.43;;
69280;SDS011;56392;51.082;17.080;2023-11-18T03:53:41;6.27;;;1.60;;
69280;SDS011;56392;51.082;17.080;2023-11-18T03:59:04;6.88;;;1.50;;
69280;SDS011;56392;51.082;17.080;2023-11-18T04:04:29;6.25;;;1.83;;
69280;SDS011;56392;51.082;17.080;2023-11-18T04:09:53;7.37;;;1.90;;
69280;SDS011;56392;51.082;17.080;2023-11-18T04:15:19;7.70;;;2.10;;
69280;SDS011;56392;51.082;17.080;2023-11-18T04:20:43;6.57;;;2.15;;
69280;SDS011;56392;51.082;17.080;2023-11-18T04:26:06;7.17;;;2.40;;
69280;SDS011;56392;51.082;17.080;2023-11-18T04:31:31;6.57;;;2.40;;
69280;SDS011;56392;51.082;17.080;2023-11-18T04:36:57;7.28;;;2.50;;
69280;SDS011;56392;51.082;17.080;2023-11-18T04:42:20;7.80;;;2.50;;
69280;SDS011;56392;51.082;17.080;2023-11-18T04:47:44;7.83;;;2.70;;
69280;SDS011;56392;51.082;17.080;2023-11-18T04:53:09;8.63;;;3.50;;
69280;SDS011;56392;51.082;17.080;2023-11-18T04:58:33;10.88;;;4.15;;
69280;SDS011;56392;51.082;17.080;2023-11-18T05:03:56;11.27;;;4.10;;
69280;SDS011;56392;51.082;17.080;2023-11-18T05:09:22;11.32;;;4.50;;
69280;SDS011;56392;51.082;17.080;2023-11-18T05:14:45;12.30;;;4.60;;
69280;SDS011;56392;51.082;17.080;2023-11-18T05:20:11;11.40;;;4.53;;
69280;SDS011;56392;51.082;17.080;2023-11-18T05:25:35;13.18;;;5.10;;
69280;SDS011;56392;51.082;17.080;2023-11-18T05:30:59;12.73;;;5.10;;
69280;SDS011;56392;51.082;17.080;2023-11-18T05:36:23;14.00;;;5.13;;
69280;SDS011;56392;51.082;17.080;2023-11-18T05:41:53;13.70;;;4.93;;
69280;SDS011;56392;51.082;17.080;2023-11-18T05:47:17;11.88;;;4.47;;
69280;SDS011;56392;51.082;17.080;2023-11-18T05:52:40;12.57;;;4.75;;
69280;SDS011;56392;51.082;17.080;2023-11-18T05:58:06;10.87;;;4.33;;
69280;SDS011;56392;51.082;17.080;2023-11-18T06:03:30;10.82;;;4.60;;
69280;SDS011;56392;51.082;17.080;2023-11-18T06:08:53;12.02;;;4.38;;
69280;SDS011;56392;51.082;17.080;2023-11-18T06:14:21;14.43;;;5.17;;
69280;SDS011;56392;51.082;17.080;2023-11-18T06:19:45;12.88;;;5.43;;
69280;SDS011;56392;51.082;17.080;2023-11-18T06:25:08;16.27;;;5.70;;
69280;SDS011;56392;51.082;17.080;2023-11-18T06:30:32;13.13;;;6.10;;
69280;SDS011;56392;51.082;17.080;2023-11-18T06:35:56;15.07;;;5.90;;
69280;SDS011;56392;51.082;17.080;2023-11-18T06:41:20;14.38;;;5.38;;
69280;SDS011;56392;51.082;17.080;2023-11-18T06:46:46;13.87;;;5.57;;
69280;SDS011;56392;51.082;17.080;2023-11-18T06:52:13;16.07;;;6.60;;
69280;SDS011;56392;51.082;17.080;2023-11-18T06:57:36;16.10;;;6.32;;
69280;SDS011;56392;51.082;17.080;2023-11-18T07:03:03;14.80;;;6.10;;
69280;SDS011;56392;51.082;17.080;2023-11-18T07:08:27;14.57;;;5.83;;
69280;SDS011;56392;51.082;17.080;2023-11-18T07:13:50;15.35;;;6.30;;
69280;SDS011;56392;51.082;17.080;2023-11-18T07:19:19;17.40;;;5.95;;
69280;SDS011;56392;51.082;17.080;2023-11-18T07:24:43;16.57;;;6.83;;
69280;SDS011;56392;51.082;17.080;2023-11-18T07:30:07;15.52;;;6.50;;
69280;SDS011;56392;51.082;17.080;2023-11-18T07:35:34;15.65;;;6.60;;
69280;SDS011;56392;51.082;17.080;2023-11-18T07:40:59;13.10;;;5.87;;
69280;SDS011;56392;51.082;17.080;2023-11-18T07:46:24;13.73;;;5.80;;
69280;SDS011;56392;51.082;17.080;2023-11-18T07:51:49;15.00;;;6.75;;
69280;SDS011;56392;51.082;17.080;2023-11-18T07:57:12;15.05;;;5.70;;
69280;SDS011;56392;51.082;17.080;2023-11-18T08:02:36;17.13;;;6.87;;
69280;SDS011;56392;51.082;17.080;2023-11-18T08:08:00;15.98;;;6.25;;
69280;SDS011;56392;51.082;17.080;2023-11-18T08:13:26;14.45;;;6.38;;
69280;SDS011;56392;51.082;17.080;2023-11-18T08:18:49;14.23;;;5.90;;
69280;SDS011;56392;51.082;17.080;2023-11-18T08:24:15;15.88;;;6.93;;
69280;SDS011;56392;51.082;17.080;2023-11-18T08:29:38;12.40;;;5.90;;
69280;SDS011;56392;51.082;17.080;2023-11-18T08:35:03;16.97;;;6.80;;
69280;SDS011;56392;51.082;17.080;2023-11-18T08:40:28;14.73;;;6.43;;
69280;SDS011;56392;51.082;17.080;2023-11-18T08:45:51;14.82;;;6.80;;
69280;SDS011;56392;51.082;17.080;2023-11-18T08:51:15;14.15;;;6.25;;
69280;SDS011;56392;51.082;17.080;2023-11-18T08:56:40;15.80;;;6.73;;
69280;SDS011;56392;51.082;17.080;2023-11-18T09:02:04;16.95;;;7.47;;
69280;SDS011;56392;51.082;17.080;2023-11-18T09:07:29;17.30;;;7.20;;
69280;SDS011;56392;51.082;17.080;2023-11-18T09:12:54;17.60;;;7.60;;
69280;SDS011;56392;51.082;17.080;2023-11-18T09:18:17;16.85;;;8.00;;
69280;SDS011;56392;51.082;17.080;2023-11-18T09:23:43;18.52;;;7.20;;
69280;SDS011;56392;51.082;17.080;2023-11-18T09:29:11;18.13;;;7.30;;
69280;SDS011;56392;51.082;17.080;2023-11-18T09:34:35;19.20;;;7.23;;
69280;SDS011;56392;51.082;17.080;2023-11-18T09:40:00;18.02;;;7.35;;
69280;SDS011;56392;51.082;17.080;2023-11-18T09:45:34;15.30;;;7.18;;
69280;SDS011;56392;51.082;17.080;2023-11-18T09:50:57;18.23;;;7.20;;
69280;SDS011;56392;51.082;17.080;2023-11-18T09:56:25;14.65;;;6.57;;
69280;SDS011;56392;51.082;17.080;2023-11-18T10:02:02;17.40;;;6.72;;
69280;SDS011;56392;51.082;17.080;2023-11-18T10:07:26;16.10;;;6.67;;
69280;SDS011;56392;51.082;17.080;2023-11-18T10:12:53;14.43;;;6.00;;
69280;SDS011;56392;51.082;17.080;2023-11-18T10:18:21;13.93;;;6.05;;
69280;SDS011;56392;51.082;17.080;2023-11-18T10:24:00;17.03;;;5.97;;
69280;SDS011;56392;51.082;17.080;2023-11-18T10:29:25;13.90;;;5.47;;
69280;SDS011;56392;51.082;17.080;2023-11-18T10:34:51;13.32;;;5.72;;
69280;SDS011;56392;51.082;17.080;2023-11-18T10:40:16;12.52;;;5.38;;
69280;SDS011;56392;51.082;17.080;2023-11-18T10:45:38;13.03;;;5.17;;
69280;SDS011;56392;51.082;17.080;2023-11-18T10:51:04;14.18;;;5.18;;
69280;SDS011;56392;51.082;17.080;2023-11-18T10:56:28;12.25;;;5.63;;
69280;SDS011;56392;51.082;17.080;2023-11-18T11:01:51;13.13;;;5.23;;
69280;SDS011;56392;51.082;17.080;2023-11-18T11:07:20;11.95;;;4.28;;
69280;SDS011;56392;51.082;17.080;2023-11-18T11:12:47;10.30;;;4.05;;
69280;SDS011;56392;51.082;17.080;2023-11-18T11:18:17;11.03;;;4.13;;
69280;SDS011;56392;51.082;17.080;2023-11-18T11:23:54;10.90;;;4.10;;
69280;SDS011;56392;51.082;17.080;2023-11-18T11:29:24;12.23;;;4.57;;
69280;SDS011;56392;51.082;17.080;2023-11-18T11:34:50;10.55;;;4.18;;
69280;SDS011;56392;51.082;17.080;2023-11-18T11:40:21;12.80;;;4.87;;
69280;SDS011;56392;51.082;17.080;2023-11-18T11:45:44;12.32;;;5.00;;
69280;SDS011;56392;51.082;17.080;2023-11-18T11:51:16;14.20;;;7.10;;
69280;SDS011;56392;51.082;17.080;2023-11-18T11:56:51;14.90;;;7.00;;
69280;SDS011;56392;51.082;17.080;2023-11-18T12:02:21;15.50;;;7.25;;
69280;SDS011;56392;51.082;17.080;2023-11-18T12:07:47;15.85;;;7.72;;
69280;SDS011;56392;51.082;17.080;2023-11-18T12:13:12;18.90;;;8.00;;
69280;SDS011;56392;51.082;17.080;2023-11-18T12:18:38;18.00;;;8.57;;
69280;SDS011;56392;51.082;17.080;2023-11-18T12:24:14;18.33;;;8.65;;
69280;SDS011;56392;51.082;17.080;2023-11-18T12:29:44;17.20;;;6.88;;
69280;SDS011;56392;51.082;17.080;2023-11-18T12:35:07;17.73;;;7.30;;
69280;SDS011;56392;51.082;17.080;2023-11-18T12:40:51;15.38;;;6.55;;
69280;SDS011;56392;51.082;17.080;2023-11-18T12:52:16;16.53;;;7.40;;
69280;SDS011;56392;51.082;17.080;2023-11-18T12:57:45;18.42;;;7.85;;
69280;SDS011;56392;51.082;17.080;2023-11-18T13:03:10;17.58;;;7.35;;
69280;SDS011;56392;51.082;17.080;2023-11-18T13:08:36;16.40;;;6.73;;
69280;SDS011;56392;51.082;17.080;2023-11-18T13:14:02;17.33;;;8.00;;
69280;SDS011;56392;51.082;17.080;2023-11-18T13:19:27;18.63;;;8.00;;
69280;SDS011;56392;51.082;17.080;2023-11-18T13:24:51;15.55;;;7.45;;
69280;SDS011;56392;51.082;17.080;2023-11-18T13:30:14;16.20;;;7.10;;
69280;SDS011;56392;51.082;17.080;2023-11-18T13:35:40;14.63;;;6.95;;
69280;SDS011;56392;51.082;17.080;2023-11-18T13:41:04;18.23;;;7.85;;
69280;SDS011;56392;51.082;17.080;2023-11-18T13:46:30;18.17;;;7.50;;
69280;SDS011;56392;51.082;17.080;2023-11-18T13:51:55;21.15;;;8.80;;
69280;SDS011;56392;51.082;17.080;2023-11-18T13:57:19;17.60;;;7.80;;
69280;SDS011;56392;51.082;17.080;2023-11-18T14:02:43;19.57;;;9.00;;
69280;SDS011;56392;51.082;17.080;2023-11-18T14:08:17;18.27;;;7.37;;
69280;SDS011;56392;51.082;17.080;2023-11-18T14:13:41;20.48;;;8.05;;
69280;SDS011;56392;51.082;17.080;2023-11-18T14:19:07;19.77;;;8.63;;
69280;SDS011;56392;51.082;17.080;2023-11-18T14:24:33;21.37;;;8.80;;
69280;SDS011;56392;51.082;17.080;2023-11-18T14:29:56;20.13;;;8.38;;
69280;SDS011;56392;51.082;17.080;2023-11-18T14:35:21;19.83;;;8.38;;
69280;SDS011;56392;51.082;17.080;2023-11-18T14:40:46;18.10;;;8.20;;
69280;SDS011;56392;51.082;17.080;2023-11-18T14:46:12;19.27;;;9.00;;
69280;SDS011;56392;51.082;17.080;2023-11-18T14:51:35;17.77;;;7.72;;
69280;SDS011;56392;51.082;17.080;2023-11-18T14:56:59;18.73;;;8.33;;
69280;SDS011;56392;51.082;17.080;2023-11-18T15:02:23;17.03;;;8.20;;
69280;SDS011;56392;51.082;17.080;2023-11-18T15:07:46;18.10;;;8.48;;
69280;SDS011;56392;51.082;17.080;2023-11-18T15:13:12;19.00;;;8.88;;
69280;SDS011;56392;51.082;17.080;2023-11-18T15:18:36;19.77;;;8.90;;
69280;SDS011;56392;51.082;17.080;2023-11-18T15:24:00;18.30;;;7.65;;
69280;SDS011;56392;51.082;17.080;2023-11-18T15:29:27;23.95;;;9.85;;
69280;SDS011;56392;51.082;17.080;2023-11-18T15:34:55;21.37;;;9.37;;
69280;SDS011;56392;51.082;17.080;2023-11-18T15:40:19;20.55;;;9.38;;
69280;SDS011;56392;51.082;17.080;2023-11-18T15:45:47;20.77;;;9.25;;
69280;SDS011;56392;51.082;17.080;2023-11-18T15:51:12;21.07;;;9.53;;
69280;SDS011;56392;51.082;17.080;2023-11-18T15:56:37;20.80;;;9.40;;
69280;SDS011;56392;51.082;17.080;2023-11-18T16:02:02;22.70;;;9.75;;
69280;SDS011;56392;51.082;17.080;2023-11-18T16:07:26;21.67;;;9.55;;
69280;SDS011;56392;51.082;17.080;2023-11-18T16:12:50;22.80;;;9.50;;
69280;SDS011;56392;51.082;17.080;2023-11-18T16:18:15;21.50;;;10.15;;
69280;SDS011;56392;51.082;17.080;2023-11-18T16:23:38;23.40;;;10.65;;
69280;SDS011;56392;51.082;17.080;2023-11-18T16:29:02;26.07;;;11.50;;
69280;SDS011;56392;51.082;17.080;2023-11-18T16:34:28;30.10;;;13.25;;
69280;SDS011;56392;51.082;17.080;2023-11-18T16:39:52;29.30;;;12.32;;
69280;SDS011;56392;51.082;17.080;2023-11-18T16:45:16;25.13;;;10.83;;
69280;SDS011;56392;51.082;17.080;2023-11-18T16:50:43;24.37;;;10.20;;
69280;SDS011;56392;51.082;17.080;2023-11-18T16:56:07;27.80;;;12.23;;
69280;SDS011;56392;51.082;17.080;2023-11-18T17:01:31;26.27;;;10.85;;
69280;SDS011;56392;51.082;17.080;2023-11-18T17:06:55;25.93;;;10.37;;
69280;SDS011;56392;51.082;17.080;2023-11-18T17:12:19;29.67;;;12.07;;
69280;SDS011;56392;51.082;17.080;2023-11-18T17:17:42;31.00;;;11.98;;
69280;SDS011;56392;51.082;17.080;2023-11-18T17:23:07;31.00;;;12.80;;
69280;SDS011;56392;51.082;17.080;2023-11-18T17:28:31;33.00;;;14.68;;
69280;SDS011;56392;51.082;17.080;2023-11-18T17:33:54;35.08;;;14.90;;
69280;SDS011;56392;51.082;17.080;2023-11-18T17:39:19;36.10;;;15.27;;
69280;SDS011;56392;51.082;17.080;2023-11-18T17:44:42;37.97;;;15.80;;
69280;SDS011;56392;51.082;17.080;2023-11-18T17:50:05;35.20;;;14.82;;
69280;SDS011;56392;51.082;17.080;2023-11-18T17:55:34;33.95;;;15.10;;
69280;SDS011;56392;51.082;17.080;2023-11-18T18:00:57;28.60;;;12.97;;
69280;SDS011;56392;51.082;17.080;2023-11-18T18:06:39;30.10;;;13.13;;
69280;SDS011;56392;51.082;17.080;2023-11-18T18:12:43;27.98;;;12.80;;
69280;SDS011;56392;51.082;17.080;2023-11-18T18:18:07;30.13;;;12.50;;
69280;SDS011;56392;51.082;17.080;2023-11-18T18:23:31;26.25;;;11.88;;
69280;SDS011;56392;51.082;17.080;2023-11-18T18:28:56;27.10;;;11.80;;
69280;SDS011;56392;51.082;17.080;2023-11-18T18:34:19;27.63;;;11.70;;
69280;SDS011;56392;51.082;17.080;2023-11-18T18:39:42;26.83;;;12.30;;
69280;SDS011;56392;51.082;17.080;2023-11-18T18:45:07;37.97;;;16.90;;
69280;SDS011;56392;51.082;17.080;2023-11-18T18:50:32;42.05;;;18.63;;
69280;SDS011;56392;51.082;17.080;2023-11-18T18:56:01;42.87;;;18.50;;
69280;SDS011;56392;51.082;17.080;2023-11-18T19:01:27;47.90;;;19.40;;
69280;SDS011;56392;51.082;17.080;2023-11-18T19:06:50;44.10;;;19.15;;
69280;SDS011;56392;51.082;17.080;2023-11-18T19:12:16;45.53;;;19.20;;
69280;SDS011;56392;51.082;17.080;2023-11-18T19:17:40;41.75;;;17.17;;
69280;SDS011;56392;51.082;17.080;2023-11-18T19:23:03;38.90;;;16.58;;
69280;SDS011;56392;51.082;17.080;2023-11-18T19:28:26;42.13;;;17.60;;
69280;SDS011;56392;51.082;17.080;2023-11-18T19:33:51;35.77;;;14.33;;
69280;SDS011;56392;51.082;17.080;2023-11-18T19:39:15;28.90;;;12.98;;
69280;SDS011;56392;51.082;17.080;2023-11-18T19:44:38;29.92;;;12.73;;
69280;SDS011;56392;51.082;17.080;2023-11-18T19:50:06;28.50;;;11.53;;
69280;SDS011;56392;51.082;17.080;2023-11-18T19:55:30;30.65;;;12.40;;
69280;SDS011;56392;51.082;17.080;2023-11-18T20:00:53;32.00;;;12.40;;
69280;SDS011;56392;51.082;17.080;2023-11-18T20:06:18;36.40;;;14.23;;
69280;SDS011;56392;51.082;17.080;2023-11-18T20:11:47;32.80;;;14.18;;
69280;SDS011;56392;51.082;17.080;2023-11-18T20:17:10;36.63;;;14.40;;
69280;SDS011;56392;51.082;17.080;2023-11-18T20:22:35;38.73;;;15.63;;
69280;SDS011;56392;51.082;17.080;2023-11-18T20:27:58;33.43;;;13.50;;
69280;SDS011;56392;51.082;17.080;2023-11-18T20:33:21;26.67;;;11.45;;
69280;SDS011;56392;51.082;17.080;2023-11-18T20:38:46;30.02;;;13.10;;
69280;SDS011;56392;51.082;17.080;2023-11-18T20:44:09;34.93;;;14.70;;
69280;SDS011;56392;51.082;17.080;2023-11-18T20:49:32;34.63;;;15.07;;
69280;SDS011;56392;51.082;17.080;2023-11-18T20:54:56;29.10;;;12.50;;
69280;SDS011;56392;51.082;17.080;2023-11-18T21:00:20;27.40;;;10.83;;
69280;SDS011;56392;51.082;17.080;2023-11-18T21:05:45;23.50;;;9.35;;
69280;SDS011;56392;51.082;17.080;2023-11-18T21:11:10;24.80;;;9.65;;
69280;SDS011;56392;51.082;17.080;2023-11-18T21:16:33;26.33;;;10.13;;
69280;SDS011;56392;51.082;17.080;2023-11-18T21:21:57;22.55;;;9.57;;
69280;SDS011;56392;51.082;17.080;2023-11-18T21:27:21;22.98;;;9.98;;
69280;SDS011;56392;51.082;17.080;2023-11-18T21:32:44;19.07;;;8.17;;
69280;SDS011;56392;51.082;17.080;2023-11-18T21:38:07;22.60;;;9.15;;
69280;SDS011;56392;51.082;17.080;2023-11-18T21:43:32;36.90;;;13.57;;
69280;SDS011;56392;51.082;17.080;2023-11-18T21:48:56;46.47;;;15.70;;
69280;SDS011;56392;51.082;17.080;2023-11-18T21:54:19;29.40;;;11.90;;
69280;SDS011;56392;51.082;17.080;2023-11-18T21:59:44;33.85;;;13.45;;
69280;SDS011;56392;51.082;17.080;2023-11-18T22:05:07;33.38;;;14.50;;
69280;SDS011;56392;51.082;17.080;2023-11-18T22:10:31;35.97;;;15.37;;
69280;SDS011;56392;51.082;17.080;2023-11-18T22:15:56;36.75;;;15.13;;
69280;SDS011;56392;51.082;17.080;2023-11-18T22:21:19;35.97;;;15.07;;
69280;SDS011;56392;51.082;17.080;2023-11-18T22:26:44;34.23;;;15.10;;
69280;SDS011;56392;51.082;17.080;2023-11-18T22:32:09;30.75;;;13.30;;
69280;SDS011;56392;51.082;17.080;2023-11-18T22:37:33;32.35;;;13.70;;
69280;SDS011;56392;51.082;17.080;2023-11-18T22:43:01;31.10;;;12.20;;
69280;SDS011;56392;51.082;17.080;2023-11-18T22:48:30;32.45;;;13.00;;
69280;SDS011;56392;51.082;17.080;2023-11-18T22:53:54;36.70;;;13.13;;
69280;SDS011;56392;51.082;17.080;2023-11-18T22:59:18;33.40;;;14.00;;
69280;SDS011;56392;51.082;17.080;2023-11-18T23:04:43;33.22;;;13.93;;
69280;SDS011;56392;51.082;17.080;2023-11-18T23:10:07;41.35;;;16.58;;
69280;SDS011;56392;51.082;17.080;2023-11-18T23:15:30;40.60;;;16.00;;
69280;SDS011;56392;51.082;17.080;2023-11-18T23:20:55;41.00;;;15.50;;
69280;SDS011;56392;51.082;17.080;2023-11-18T23:26:19;39.70;;;15.23;;
69280;SDS011;56392;51.082;17.080;2023-11-18T23:31:42;38.30;;;17.70;;
69280;SDS011;56392;51.082;17.080;2023-11-18T23:37:07;31.60;;;13.67;;
69280;SDS011;56392;51.082;17.080;2023-11-18T23:42:31;30.63;;;13.02;;
69280;SDS011;56392;51.082;17.080;2023-11-18T23:47:54;29.75;;;12.68;;
69280;SDS011;56392;51.082;17.080;2023-11-18T23:53:20;33.70;;;13.27;;
69280;SDS011;56392;51.082;17.080;2023-11-18T23:58:43;30.00;;;12.93;;
